createdAt,value
2022-09-12T00:01:11.651Z,0.80
2022-09-12T00:03:39.823Z,1.13
2022-09-12T00:06:33.180Z,0.70
2022-09-12T00:09:05.746Z,0.63
2022-09-12T00:11:39.429Z,1.33
2022-09-12T00:14:10.484Z,0.93
2022-09-12T00:16:38.989Z,1.08
2022-09-12T00:19:07.120Z,0.40
2022-09-12T00:21:36.774Z,0.30
2022-09-12T00:24:04.720Z,0.63
2022-09-12T00:26:32.717Z,0.20
2022-09-12T00:29:00.082Z,0.67
2022-09-12T00:31:27.733Z,0.20
2022-09-12T00:34:02.460Z,0.68
2022-09-12T00:36:30.362Z,0.63
2022-09-12T00:38:57.931Z,0.50
2022-09-12T00:41:38.285Z,0.93
2022-09-12T00:44:23.675Z,0.25
2022-09-12T00:47:17.668Z,0.65
2022-09-12T00:49:55.980Z,0.20
2022-09-12T00:52:48.740Z,0.20
2022-09-12T00:55:39.291Z,0.30
2022-09-12T00:58:21.693Z,0.40
2022-09-12T01:00:49.447Z,0.57
2022-09-12T01:03:19.646Z,0.28
2022-09-12T01:06:04.085Z,0.30
2022-09-12T01:08:33.435Z,0.20
2022-09-12T01:11:01.139Z,1.00
2022-09-12T01:13:29.001Z,0.20
2022-09-12T01:15:56.293Z,0.20
2022-09-12T01:18:39.733Z,0.45
2022-09-12T01:22:01.405Z,1.00
2022-09-12T01:25:09.145Z,0.50
2022-09-12T01:28:12.608Z,0.30
2022-09-12T01:31:17.060Z,0.70
2022-09-12T01:33:55.529Z,0.20
2022-09-12T01:37:10.268Z,0.40
2022-09-12T01:40:16.106Z,0.50
2022-09-12T01:43:31.224Z,0.52
2022-09-12T01:46:04.413Z,0.60
2022-09-12T01:48:59.584Z,0.90
2022-09-12T01:52:17.496Z,0.73
2022-09-12T01:55:12.265Z,0.65
2022-09-12T01:58:05.814Z,0.38
2022-09-12T02:00:39.641Z,0.35
2022-09-12T02:03:19.882Z,0.30
2022-09-12T02:05:54.096Z,0.40
2022-09-12T02:08:39.143Z,0.63
2022-09-12T02:11:11.582Z,0.85
2022-09-12T02:14:07.961Z,1.23
2022-09-12T02:16:50.375Z,0.82
2022-09-12T02:19:22.655Z,0.80
2022-09-12T02:22:00.800Z,1.15
2022-09-12T02:24:39.493Z,0.77
2022-09-12T02:27:20.179Z,0.68
2022-09-12T02:29:47.908Z,0.88
2022-09-12T02:32:50.367Z,0.63
2022-09-12T02:35:46.036Z,1.08
2022-09-12T02:38:40.441Z,1.30
2022-09-12T02:41:07.677Z,0.85
2022-09-12T02:43:37.181Z,0.65
2022-09-12T02:46:09.669Z,0.60
2022-09-12T02:48:41.688Z,0.90
2022-09-12T02:51:11.042Z,0.70
2022-09-12T02:53:38.686Z,0.90
2022-09-12T02:56:12.565Z,0.60
2022-09-12T02:58:39.667Z,0.60
2022-09-12T03:01:45.811Z,0.90
2022-09-12T03:04:43.481Z,0.50
2022-09-12T03:07:37.163Z,0.52
2022-09-12T03:10:28.774Z,0.55
2022-09-12T03:13:06.180Z,0.52
2022-09-12T03:15:48.731Z,0.73
2022-09-12T03:18:51.202Z,1.00
2022-09-12T03:21:27.745Z,0.22
2022-09-12T03:24:28.751Z,0.65
2022-09-12T03:27:13.443Z,1.13
2022-09-12T03:29:42.634Z,2.85
2022-09-12T03:32:09.812Z,0.95
2022-09-12T03:34:37.013Z,1.10
2022-09-12T03:37:04.576Z,0.60
2022-09-12T03:39:32.015Z,1.13
2022-09-12T03:41:59.009Z,1.33
2022-09-12T03:44:26.152Z,1.45
2022-09-12T03:46:53.238Z,1.10
2022-09-12T03:49:20.329Z,1.52
2022-09-12T03:51:47.404Z,0.90
2022-09-12T03:54:14.400Z,1.33
2022-09-12T03:56:41.524Z,1.02
2022-09-12T03:59:08.733Z,0.93
2022-09-12T04:01:37.187Z,2.28
2022-09-12T04:04:04.687Z,1.83
2022-09-12T04:06:31.896Z,0.90
2022-09-12T04:09:00.137Z,0.95
2022-09-12T04:11:27.302Z,1.47
2022-09-12T04:13:54.593Z,1.70
2022-09-12T04:16:21.884Z,1.45
2022-09-12T04:18:49.001Z,0.85
2022-09-12T04:21:21.111Z,1.10
2022-09-12T04:23:48.933Z,0.70
2022-09-12T04:26:17.903Z,0.47
2022-09-12T04:28:45.949Z,0.50
2022-09-12T04:31:17.423Z,0.30
2022-09-12T04:33:45.851Z,0.70
2022-09-12T04:36:16.713Z,0.65
2022-09-12T04:38:45.723Z,0.40
2022-09-12T04:41:17.159Z,0.73
2022-09-12T04:43:45.815Z,0.52
2022-09-12T04:46:16.259Z,0.80
2022-09-12T04:48:43.684Z,1.10
2022-09-12T04:51:14.865Z,0.70
2022-09-12T04:53:43.074Z,1.20
2022-09-12T04:56:11.670Z,0.95
2022-09-12T04:58:38.853Z,0.93
2022-09-12T05:01:14.257Z,1.00
2022-09-12T05:03:43.654Z,0.60
2022-09-12T05:06:30.746Z,0.88
2022-09-12T05:08:59.223Z,0.57
2022-09-12T05:11:52.978Z,1.00
2022-09-12T05:14:18.541Z,1.17
2022-09-12T05:16:49.143Z,0.43
2022-09-12T05:19:17.018Z,0.47
2022-09-12T05:21:44.107Z,0.52
2022-09-12T05:24:11.591Z,0.40
2022-09-12T05:26:38.762Z,0.40
2022-09-12T05:29:06.437Z,0.35
2022-09-12T05:31:34.208Z,0.30
2022-09-12T05:34:06.352Z,0.70
2022-09-12T05:36:33.504Z,0.47
2022-09-12T05:39:01.034Z,0.30
2022-09-12T05:41:32.247Z,0.60
2022-09-12T05:44:02.735Z,0.20
2022-09-12T05:46:36.552Z,0.35
2022-09-12T05:49:08.135Z,0.30
2022-09-12T05:51:39.065Z,0.10
2022-09-12T05:54:09.851Z,0.38
2022-09-12T05:56:40.404Z,0.10
2022-09-12T05:59:13.348Z,0.22
2022-09-12T06:01:41.190Z,0.20
2022-09-12T06:04:08.401Z,0.10
2022-09-12T06:06:44.281Z,0.37
2022-09-12T06:09:13.393Z,0.50
2022-09-12T06:11:40.485Z,0.82
2022-09-12T06:14:10.209Z,0.17
2022-09-12T06:16:38.341Z,0.20
2022-09-12T06:19:21.078Z,0.32
2022-09-12T06:21:48.965Z,0.75
2022-09-12T06:24:17.601Z,0.50
2022-09-12T06:26:45.730Z,0.43
2022-09-12T06:29:13.510Z,0.47
2022-09-12T06:31:42.563Z,0.35
2022-09-12T06:34:13.817Z,0.40
2022-09-12T06:36:47.418Z,0.30
2022-09-12T06:39:17.961Z,0.40
2022-09-12T06:41:46.196Z,1.40
2022-09-12T06:44:21.049Z,0.40
2022-09-12T06:46:48.828Z,0.43
2022-09-12T06:49:17.101Z,0.35
2022-09-12T06:51:44.451Z,0.68
2022-09-12T06:54:19.496Z,0.30
2022-09-12T06:56:46.647Z,0.93
2022-09-12T06:59:13.773Z,0.13
2022-09-12T07:01:41.219Z,0.50
2022-09-12T07:04:09.281Z,0.35
2022-09-12T07:06:40.603Z,0.10
2022-09-12T07:09:12.687Z,1.33
2022-09-12T07:11:41.592Z,0.63
2022-09-12T07:14:13.369Z,0.73
2022-09-12T07:16:41.239Z,0.30
2022-09-12T07:19:09.523Z,0.70
2022-09-12T07:21:38.979Z,0.40
2022-09-12T07:24:08.848Z,0.93
2022-09-12T07:26:36.731Z,0.65
2022-09-12T07:29:25.544Z,0.10
2022-09-12T07:31:51.917Z,0.63
2022-09-12T07:34:18.987Z,1.00
2022-09-12T07:36:46.083Z,0.57
2022-09-12T07:39:13.190Z,0.40
2022-09-12T07:41:40.334Z,0.45
2022-09-12T07:44:07.568Z,0.52
2022-09-12T07:46:34.989Z,0.60
2022-09-12T07:49:02.433Z,0.47
2022-09-12T07:51:31.173Z,0.28
2022-09-12T07:53:58.819Z,0.73
2022-09-12T07:56:30.157Z,0.15
2022-09-12T07:58:58.670Z,1.33
2022-09-12T08:01:26.521Z,0.20
2022-09-12T08:03:56.540Z,0.10
2022-09-12T08:06:25.071Z,0.30
2022-09-12T08:08:55.644Z,0.40
2022-09-12T08:11:24.881Z,0.60
2022-09-12T08:13:55.715Z,0.43
2022-09-12T08:16:26.992Z,0.20
2022-09-12T08:18:54.633Z,0.50
2022-09-12T08:21:28.856Z,0.28
2022-09-12T08:24:03.216Z,0.35
2022-09-12T08:26:32.166Z,0.30
2022-09-12T08:29:00.082Z,0.38
2022-09-12T08:31:28.169Z,0.27
2022-09-12T08:33:57.183Z,0.43
2022-09-12T08:36:27.002Z,0.30
2022-09-12T08:39:01.067Z,0.75
2022-09-12T08:41:50.564Z,0.55
2022-09-12T08:44:30.034Z,1.45
2022-09-12T08:47:15.021Z,0.73
2022-09-12T08:49:55.797Z,0.90
2022-09-12T08:53:15.759Z,0.65
2022-09-12T08:55:58.499Z,0.75
2022-09-12T08:58:28.566Z,0.30
2022-09-12T09:01:30.973Z,0.38
2022-09-12T09:04:40.039Z,0.30
2022-09-12T09:07:48.559Z,0.40
2022-09-12T09:10:53.060Z,0.40
2022-09-12T09:14:06.313Z,0.60
2022-09-12T09:16:41.497Z,0.68
2022-09-12T09:19:20.976Z,0.40
2022-09-12T09:22:00.916Z,0.55
2022-09-12T09:24:50.698Z,1.10
2022-09-12T09:28:22.845Z,0.75
2022-09-12T09:30:50.369Z,0.60
2022-09-12T09:33:27.939Z,1.63
2022-09-12T09:36:46.943Z,0.60
2022-09-12T09:39:53.880Z,0.45
2022-09-12T09:42:39.459Z,0.47
2022-09-12T09:45:18.784Z,0.70
2022-09-12T09:47:56.505Z,0.50
2022-09-12T09:50:24.827Z,0.30
2022-09-12T09:52:53.419Z,0.90
2022-09-12T09:55:33.049Z,0.30
2022-09-12T09:58:00.235Z,0.60
2022-09-12T10:00:37.906Z,0.70
2022-09-12T10:03:14.227Z,0.35
2022-09-12T10:05:59.609Z,0.40
2022-09-12T10:08:31.572Z,0.32
2022-09-12T10:11:07.382Z,0.60
2022-09-12T10:14:00.760Z,0.30
2022-09-12T10:16:34.535Z,0.40
2022-09-12T10:19:03.456Z,2.45
2022-09-12T10:21:36.356Z,0.28
2022-09-12T10:24:24.221Z,1.00
2022-09-12T10:27:19.600Z,0.47
2022-09-12T10:29:55.351Z,0.20
2022-09-12T10:32:37.004Z,0.30
2022-09-12T10:35:41.638Z,1.40
2022-09-12T10:38:32.210Z,0.20
2022-09-12T10:41:10.478Z,0.30
2022-09-12T10:43:40.795Z,0.60
2022-09-12T10:46:27.924Z,0.40
2022-09-12T10:49:20.958Z,1.10
2022-09-12T10:51:49.127Z,1.00
2022-09-12T10:54:20.322Z,0.20
2022-09-12T10:57:34.736Z,0.28
2022-09-12T11:00:17.093Z,0.90
2022-09-12T11:03:27.738Z,0.17
2022-09-12T11:06:01.062Z,0.77
2022-09-12T11:09:16.995Z,0.52
2022-09-12T11:12:10.904Z,0.65
2022-09-12T11:15:16.516Z,0.40
2022-09-12T11:18:27.581Z,0.60
2022-09-12T11:21:41.737Z,0.85
2022-09-12T11:24:30.682Z,1.02
2022-09-12T11:27:21.780Z,0.40
2022-09-12T11:30:00.700Z,0.20
2022-09-12T11:32:44.903Z,0.55
2022-09-12T11:35:17.108Z,0.70
2022-09-12T11:38:30.042Z,0.55
2022-09-12T11:41:16.837Z,0.63
2022-09-12T11:44:03.015Z,0.52
2022-09-12T11:46:37.371Z,0.60
2022-09-12T11:49:13.134Z,0.50
2022-09-12T11:52:10.624Z,1.92
2022-09-12T11:55:07.079Z,0.57
2022-09-12T11:57:55.184Z,1.25
2022-09-12T12:00:32.464Z,0.77
2022-09-12T12:03:16.974Z,1.65
2022-09-12T12:06:20.860Z,1.13
2022-09-12T12:08:49.938Z,0.50
2022-09-12T12:11:43.030Z,1.17
2022-09-12T12:14:43.550Z,0.82
2022-09-12T12:17:23.365Z,1.52
2022-09-12T12:20:07.398Z,1.85
2022-09-12T12:22:35.530Z,1.52
2022-09-12T12:25:29.854Z,1.95
2022-09-12T12:28:05.630Z,1.08
2022-09-12T12:30:33.394Z,1.58
2022-09-12T12:33:09.449Z,1.27
2022-09-12T12:35:40.977Z,1.60
2022-09-12T12:38:38.468Z,1.50
2022-09-12T12:41:17.860Z,0.90
2022-09-12T12:43:50.730Z,1.27
2022-09-12T12:46:21.915Z,2.50
2022-09-12T12:49:19.134Z,1.98
2022-09-12T12:52:01.695Z,1.10
2022-09-12T12:54:40.423Z,1.40
2022-09-12T13:00:27.527Z,1.73
2022-09-12T13:03:27.593Z,1.65
2022-09-12T13:06:04.799Z,1.63
2022-09-12T13:08:38.428Z,2.38
2022-09-12T13:11:15.995Z,2.50
2022-09-12T13:13:59.760Z,1.92
2022-09-12T13:16:55.316Z,1.77
2022-09-12T13:19:29.841Z,2.58
2022-09-12T13:22:03.924Z,1.95
2022-09-12T13:24:31.160Z,1.35
2022-09-12T13:26:58.623Z,1.80
2022-09-12T13:29:27.868Z,2.40
2022-09-12T13:31:57.300Z,2.03
2022-09-12T13:34:51.148Z,1.83
2022-09-12T13:37:36.121Z,1.70
2022-09-12T13:40:40.534Z,1.85
2022-09-12T13:43:38.813Z,1.80
2022-09-12T13:48:34.692Z,2.22
2022-09-12T13:51:03.365Z,2.70
2022-09-12T13:56:20.443Z,2.03
2022-09-12T13:59:00.195Z,1.27
2022-09-12T14:01:45.988Z,1.58
2022-09-12T14:04:37.647Z,2.67
2022-09-12T14:07:22.912Z,2.45
2022-09-12T14:09:59.708Z,2.03
2022-09-12T14:12:34.218Z,1.85
2022-09-12T14:15:01.631Z,1.85
2022-09-12T14:17:39.022Z,2.22
2022-09-12T14:20:13.523Z,3.88
2022-09-12T14:22:41.209Z,2.72
2022-09-12T14:25:24.872Z,2.90
2022-09-12T14:27:57.176Z,2.40
2022-09-12T14:30:26.691Z,2.25
2022-09-12T14:33:11.864Z,2.70
2022-09-12T14:36:08.482Z,3.28
2022-09-12T14:38:44.208Z,2.17
2022-09-12T14:41:20.111Z,2.22
2022-09-12T14:43:54.040Z,2.30
2022-09-12T14:46:29.921Z,2.95
2022-09-12T14:49:08.620Z,2.25
2022-09-12T14:51:51.454Z,3.17
2022-09-12T14:54:27.708Z,2.97
2022-09-12T14:57:00.326Z,3.40
2022-09-12T14:59:33.496Z,2.75
2022-09-12T15:02:19.303Z,2.58
2022-09-12T15:05:13.761Z,2.85
2022-09-12T15:07:50.775Z,2.80
2022-09-12T15:10:37.043Z,2.47
2022-09-12T15:13:13.863Z,2.47
2022-09-12T15:15:44.209Z,2.90
2022-09-12T15:18:11.625Z,4.13
2022-09-12T15:20:41.875Z,3.63
2022-09-12T15:23:51.517Z,4.85
2022-09-12T15:26:21.902Z,3.40
2022-09-12T15:28:50.558Z,3.45
2022-09-12T15:31:29.666Z,3.42
2022-09-12T15:34:00.558Z,3.50
2022-09-12T15:36:28.915Z,2.88
2022-09-12T15:38:56.661Z,3.20
2022-09-12T15:41:36.243Z,3.20
2022-09-12T15:44:13.487Z,2.97
2022-09-12T15:46:40.745Z,3.03
2022-09-12T15:49:07.936Z,2.70
2022-09-12T15:51:35.202Z,2.85
2022-09-12T15:54:04.346Z,2.88
2022-09-12T15:56:31.422Z,2.20
2022-09-12T15:58:59.795Z,2.03
2022-09-12T16:03:55.745Z,2.60
2022-09-12T16:06:23.370Z,2.08
2022-09-12T16:08:50.473Z,2.00
2022-09-12T16:11:26.155Z,2.20
2022-09-12T16:13:56.429Z,2.15
2022-09-12T16:16:24.637Z,2.30
2022-09-12T16:18:52.072Z,1.90
2022-09-12T16:21:19.183Z,2.85
2022-09-12T16:23:48.016Z,2.35
2022-09-12T16:28:42.413Z,2.80
2022-09-12T16:31:13.071Z,4.13
2022-09-12T16:33:40.790Z,3.70
2022-09-12T16:36:17.583Z,3.15
2022-09-12T16:38:48.548Z,3.90
2022-09-12T16:41:18.460Z,3.78
2022-09-12T16:43:46.202Z,3.17
2022-09-12T16:46:16.835Z,3.80
2022-09-12T16:48:52.136Z,4.38
2022-09-12T16:51:32.941Z,4.90
2022-09-12T16:54:00.231Z,4.05
2022-09-12T16:56:27.591Z,3.78
2022-09-12T16:58:55.201Z,3.67
2022-09-12T17:01:24.900Z,3.58
2022-09-12T17:03:55.620Z,2.78
2022-09-12T17:06:24.540Z,3.53
2022-09-12T17:11:28.957Z,2.97
2022-09-12T17:14:05.011Z,4.30
2022-09-12T17:16:40.307Z,4.93
2022-09-12T17:19:11.370Z,3.17
2022-09-12T17:21:38.663Z,2.83
2022-09-12T17:24:05.887Z,4.15
2022-09-12T17:26:33.125Z,3.85
2022-09-12T17:29:00.863Z,3.45
2022-09-12T17:31:28.424Z,3.20
2022-09-12T17:33:57.809Z,2.53
2022-09-12T17:36:26.096Z,3.28
2022-09-12T17:38:53.680Z,3.40
2022-09-12T17:41:24.397Z,3.50
2022-09-12T17:43:55.917Z,4.10
2022-09-12T17:46:26.662Z,3.97
2022-09-12T17:48:57.033Z,4.63
2022-09-12T17:51:29.929Z,2.75
2022-09-12T17:54:09.782Z,3.42
2022-09-12T17:56:38.879Z,2.78
2022-09-12T17:59:08.291Z,3.00
2022-09-12T18:01:54.172Z,3.50
2022-09-12T18:04:21.377Z,3.65
2022-09-12T18:06:49.010Z,3.00
2022-09-12T18:09:24.312Z,4.10
2022-09-12T18:11:52.426Z,3.58
2022-09-12T18:14:20.482Z,4.10
2022-09-12T18:16:48.064Z,3.63
2022-09-12T18:19:15.799Z,3.08
2022-09-12T18:21:42.917Z,4.35
2022-09-12T18:24:11.035Z,4.07
2022-09-12T18:26:38.670Z,3.60
2022-09-12T18:29:06.748Z,3.50
2022-09-12T18:31:34.013Z,3.70
2022-09-12T18:34:01.869Z,2.80
2022-09-12T18:36:30.408Z,3.70
2022-09-12T18:38:59.033Z,3.97
2022-09-12T18:41:28.196Z,3.72
2022-09-12T18:43:58.442Z,3.10
2022-09-12T18:46:27.925Z,5.68
2022-09-12T18:48:59.176Z,4.63
2022-09-12T18:51:30.839Z,3.60
2022-09-12T18:54:08.324Z,3.55
2022-09-12T18:56:37.741Z,3.13
2022-09-12T18:59:06.620Z,3.15
2022-09-12T19:04:05.546Z,2.80
2022-09-12T19:06:39.796Z,2.75
2022-09-12T19:09:08.673Z,2.92
2022-09-12T19:14:05.599Z,3.38
2022-09-12T19:16:33.103Z,3.08
2022-09-12T19:19:01.904Z,3.35
2022-09-12T19:21:31.670Z,3.38
2022-09-12T19:24:03.270Z,3.53
2022-09-12T19:26:31.311Z,2.30
2022-09-12T19:28:58.835Z,1.97
2022-09-12T19:31:26.109Z,2.08
2022-09-12T19:33:57.951Z,2.63
2022-09-12T19:36:44.240Z,2.20
2022-09-12T19:39:12.620Z,2.78
2022-09-12T19:41:39.943Z,2.10
2022-09-12T19:44:07.650Z,2.70
2022-09-12T19:46:34.895Z,1.60
2022-09-12T19:49:03.074Z,2.28
2022-09-12T19:51:31.032Z,3.63
2022-09-12T19:53:58.195Z,2.97
2022-09-12T19:56:25.391Z,2.28
2022-09-12T19:58:56.407Z,2.58
2022-09-12T20:01:29.187Z,1.65
2022-09-12T20:03:58.087Z,1.10
2022-09-12T20:08:53.915Z,1.13
2022-09-12T20:11:23.213Z,2.17
2022-09-12T20:13:50.944Z,2.08
2022-09-12T20:16:28.272Z,1.90
2022-09-12T20:19:07.851Z,0.90
2022-09-12T20:21:36.402Z,2.90
2022-09-12T20:24:11.789Z,2.63
2022-09-12T20:26:39.928Z,1.52
2022-09-12T20:29:08.031Z,1.00
2022-09-12T20:31:37.447Z,1.10
2022-09-12T20:34:05.973Z,1.10
2022-09-12T20:36:33.978Z,1.60
2022-09-12T20:39:03.565Z,1.17
2022-09-12T20:41:34.659Z,1.33
2022-09-12T20:44:02.264Z,0.82
2022-09-12T20:46:29.596Z,1.45
2022-09-12T20:48:57.839Z,0.98
2022-09-12T20:51:29.775Z,1.30
2022-09-12T20:54:02.940Z,1.30
2022-09-12T20:56:33.484Z,1.40
2022-09-12T20:59:01.563Z,1.42
2022-09-12T21:01:30.787Z,1.30
2022-09-12T21:04:00.514Z,1.00
2022-09-12T21:06:27.976Z,1.15
2022-09-12T21:08:59.529Z,0.90
2022-09-12T21:11:27.972Z,1.00
2022-09-12T21:13:55.427Z,1.35
2022-09-12T21:16:23.337Z,1.38
2022-09-12T21:18:58.872Z,1.88
2022-09-12T21:21:26.651Z,1.42
2022-09-12T21:24:02.229Z,1.50
2022-09-12T21:26:29.624Z,1.83
2022-09-12T21:28:57.521Z,1.50
2022-09-12T21:31:25.577Z,3.13
2022-09-12T21:33:52.890Z,2.33
2022-09-12T21:36:20.028Z,2.83
2022-09-12T21:38:47.298Z,2.20
2022-09-12T21:41:16.398Z,4.65
2022-09-12T21:43:44.403Z,1.80
2022-09-12T21:46:11.889Z,2.37
2022-09-12T21:48:39.127Z,2.92
2022-09-12T21:51:06.518Z,2.08
2022-09-12T21:53:35.107Z,2.30
2022-09-12T21:56:07.998Z,1.40
2022-09-12T21:58:36.451Z,1.50
2022-09-12T22:01:05.187Z,1.50
2022-09-12T22:03:32.598Z,1.70
2022-09-12T22:06:02.826Z,2.25
2022-09-12T22:08:32.789Z,1.88
2022-09-12T22:11:05.040Z,3.67
2022-09-12T22:13:32.977Z,2.05
2022-09-12T22:16:02.167Z,3.75
2022-09-12T22:18:32.892Z,2.10
2022-09-12T22:21:06.762Z,1.63
2022-09-12T22:23:52.678Z,2.20
2022-09-12T22:26:19.892Z,2.33
2022-09-12T22:28:47.449Z,1.60
2022-09-12T22:31:15.229Z,1.90
2022-09-12T22:33:42.751Z,1.77
2022-09-12T22:36:10.041Z,3.28
2022-09-12T22:38:37.469Z,2.92
2022-09-12T22:41:08.580Z,1.60
2022-09-12T22:43:36.437Z,1.90
2022-09-12T22:46:14.161Z,3.55
2022-09-12T22:48:42.107Z,2.58
2022-09-12T22:51:10.433Z,2.75
2022-09-12T22:53:38.214Z,2.20
2022-09-12T22:56:06.405Z,1.92
2022-09-12T22:58:38.118Z,1.70
2022-09-12T23:01:06.274Z,1.92
2022-09-12T23:03:34.527Z,2.40
2022-09-12T23:06:02.777Z,2.75
2022-09-12T23:08:30.053Z,2.47
2022-09-12T23:11:12.642Z,3.58
2022-09-12T23:13:43.818Z,2.90
2022-09-12T23:16:22.469Z,2.65
2022-09-12T23:18:50.781Z,2.58
2022-09-12T23:21:20.817Z,2.35
2022-09-12T23:23:48.167Z,2.42
2022-09-12T23:26:24.217Z,1.88
2022-09-12T23:29:00.269Z,2.20
2022-09-12T23:31:30.706Z,1.65
2022-09-12T23:34:01.676Z,2.08
2022-09-12T23:36:29.769Z,2.08
2022-09-12T23:38:57.002Z,2.13
2022-09-12T23:41:24.562Z,1.73
2022-09-12T23:43:51.981Z,2.22
2022-09-12T23:46:20.205Z,2.05
2022-09-12T23:48:47.654Z,2.65
2022-09-12T23:51:14.817Z,1.90
2022-09-12T23:53:42.110Z,2.33
2022-09-12T23:56:09.325Z,2.63
2022-09-12T23:58:36.527Z,2.65
